N11YD KGGG-KDAB
Flight info
| Callsign | N11YD |
|---|---|
| Flight time | N/A |
| Altitude | 31000 |
| Route | MHZ CEW SZW GNV BASSS |
| Aircraft | TBM8/L-SDFGRWY/S |
Departure
| Time | 2026-04-12 17:19 |
|---|---|
| Airport | East Texas Regional Airport (KGGG) |
Arrival
| Time | N/A |
|---|---|
| Airport | Daytona Beach International Airport (KDAB) |
| Time | Latitude | Longitude | Altitude | Speed | Heading |
|---|---|---|---|---|---|
| 2026-04-12 17:08 | 32.38585 | -94.71829 | 353 ft | 0 kts | 268° |
| 2026-04-12 17:15 | 32.38622 | -94.71831 | 353 ft | 13 kts | 22° |
| 2026-04-12 17:15 | 32.38719 | -94.71813 | 357 ft | 14 kts | 3° |
| 2026-04-12 17:15 | 32.38801 | -94.71817 | 353 ft | 10 kts | 356° |
| 2026-04-12 17:15 | 32.38857 | -94.71823 | 358 ft | 6 kts | 346° |
| 2026-04-12 17:16 | 32.38895 | -94.71838 | 356 ft | 9 kts | 336° |
| 2026-04-12 17:16 | 32.38983 | -94.71918 | 353 ft | 22 kts | 313° |
| 2026-04-12 17:16 | 32.39096 | -94.72056 | 354 ft | 23 kts | 314° |
| 2026-04-12 17:16 | 32.39187 | -94.72072 | 355 ft | 0 kts | 41° |
| 2026-04-12 17:17 | 32.39231 | -94.72019 | 358 ft | 18 kts | 61° |
| 2026-04-12 17:17 | 32.39220 | -94.71966 | 362 ft | 0 kts | 133° |
| 2026-04-12 17:18 | 32.39110 | -94.71833 | 356 ft | 48 kts | 134° |
| 2026-04-12 17:18 | 32.38772 | -94.71411 | 365 ft | 90 kts | 135° |
| 2026-04-12 17:18 | 32.38335 | -94.70776 | 547 ft | 110 kts | 121° |
| 2026-04-12 17:18 | 32.38211 | -94.69748 | 693 ft | 145 kts | 94° |
| 2026-04-12 17:19 | 32.38385 | -94.68533 | 1096 ft | 154 kts | 85° |
| 2026-04-12 17:19 | 32.38520 | -94.67284 | 1476 ft | 157 kts | 92° |
| 2026-04-12 17:19 | 32.38561 | -94.65977 | 1846 ft | 161 kts | 96° |
| 2026-04-12 17:19 | 32.38599 | -94.64638 | 2236 ft | 165 kts | 94° |
| 2026-04-12 17:20 | 32.38646 | -94.63273 | 2587 ft | 167 kts | 95° |
| 2026-04-12 17:20 | 32.38690 | -94.61889 | 2943 ft | 170 kts | 96° |
| 2026-04-12 17:20 | 32.38733 | -94.60480 | 3303 ft | 172 kts | 97° |
| 2026-04-12 17:20 | 32.38776 | -94.59053 | 3660 ft | 175 kts | 96° |
| 2026-04-12 17:21 | 32.38821 | -94.57602 | 4031 ft | 177 kts | 97° |
| 2026-04-12 17:21 | 32.38862 | -94.56139 | 4386 ft | 179 kts | 96° |
| 2026-04-12 17:21 | 32.38918 | -94.54664 | 4763 ft | 181 kts | 94° |
| 2026-04-12 17:21 | 32.38979 | -94.53172 | 5135 ft | 182 kts | 96° |
| 2026-04-12 17:22 | 32.39025 | -94.51670 | 5500 ft | 183 kts | 97° |
| 2026-04-12 17:22 | 32.39039 | -94.50154 | 5874 ft | 184 kts | 97° |
| 2026-04-12 17:22 | 32.39052 | -94.48629 | 6267 ft | 187 kts | 96° |
| 2026-04-12 17:22 | 32.39108 | -94.47085 | 6644 ft | 189 kts | 93° |
| 2026-04-12 17:23 | 32.39163 | -94.45526 | 7003 ft | 190 kts | 95° |
| 2026-04-12 17:23 | 32.39201 | -94.43942 | 7322 ft | 195 kts | 95° |
| 2026-04-12 17:23 | 32.39237 | -94.42345 | 7633 ft | 199 kts | 94° |
| 2026-04-12 17:23 | 32.39280 | -94.40696 | 7989 ft | 202 kts | 94° |
| 2026-04-12 17:24 | 32.39316 | -94.39024 | 8314 ft | 205 kts | 94° |
| 2026-04-12 17:24 | 32.39377 | -94.37336 | 8636 ft | 206 kts | 90° |
| 2026-04-12 17:24 | 32.39401 | -94.35643 | 8925 ft | 206 kts | 96° |
| 2026-04-12 17:24 | 32.39382 | -94.33934 | 9256 ft | 209 kts | 93° |
| 2026-04-12 17:25 | 32.39465 | -94.32217 | 9580 ft | 210 kts | 90° |
| 2026-04-12 17:25 | 32.39549 | -94.30493 | 9916 ft | 209 kts | 92° |
| 2026-04-12 17:25 | 32.39604 | -94.28774 | 10257 ft | 208 kts | 92° |
| 2026-04-12 17:25 | 32.39649 | -94.27064 | 10583 ft | 207 kts | 92° |
| 2026-04-12 17:26 | 32.39691 | -94.25364 | 10911 ft | 206 kts | 93° |
| 2026-04-12 17:26 | 32.39732 | -94.23671 | 11243 ft | 206 kts | 93° |
| 2026-04-12 17:26 | 32.39773 | -94.21981 | 11579 ft | 205 kts | 93° |
| 2026-04-12 17:26 | 32.39814 | -94.20300 | 11916 ft | 204 kts | 93° |
| 2026-04-12 17:27 | 32.39856 | -94.18630 | 12255 ft | 202 kts | 93° |
| 2026-04-12 17:27 | 32.39898 | -94.16966 | 12601 ft | 202 kts | 93° |
| 2026-04-12 17:27 | 32.39941 | -94.15308 | 12953 ft | 201 kts | 94° |
| 2026-04-12 17:27 | 32.39981 | -94.13653 | 13309 ft | 201 kts | 94° |
| 2026-04-12 17:28 | 32.40022 | -94.12004 | 13665 ft | 200 kts | 94° |
| 2026-04-12 17:28 | 32.40065 | -94.10363 | 14020 ft | 199 kts | 94° |
| 2026-04-12 17:28 | 32.40110 | -94.08716 | 14294 ft | 201 kts | 94° |
| 2026-04-12 17:28 | 32.40151 | -94.07053 | 14590 ft | 202 kts | 94° |
| 2026-04-12 17:29 | 32.40192 | -94.05385 | 14864 ft | 203 kts | 94° |
| 2026-04-12 17:29 | 32.40234 | -94.03711 | 15147 ft | 204 kts | 94° |
| 2026-04-12 17:29 | 32.40274 | -94.02051 | 15430 ft | 205 kts | 94° |
| 2026-04-12 17:29 | 32.40314 | -94.00356 | 15692 ft | 209 kts | 94° |
| 2026-04-12 17:30 | 32.40354 | -93.98618 | 15943 ft | 213 kts | 94° |
| 2026-04-12 17:30 | 32.40393 | -93.96847 | 16200 ft | 217 kts | 94° |
| 2026-04-12 17:30 | 32.40432 | -93.95041 | 16457 ft | 221 kts | 94° |
| 2026-04-12 17:30 | 32.40473 | -93.93206 | 16715 ft | 225 kts | 93° |
| 2026-04-12 17:31 | 32.40515 | -93.91345 | 16972 ft | 228 kts | 93° |
| 2026-04-12 17:31 | 32.40558 | -93.89455 | 17227 ft | 231 kts | 93° |
| 2026-04-12 17:31 | 32.40602 | -93.87543 | 17485 ft | 234 kts | 93° |
| 2026-04-12 17:31 | 32.40647 | -93.85619 | 17790 ft | 234 kts | 93° |
| 2026-04-12 17:32 | 32.40693 | -93.83696 | 18103 ft | 234 kts | 93° |
| 2026-04-12 17:32 | 32.40739 | -93.81775 | 18421 ft | 234 kts | 93° |
| 2026-04-12 17:32 | 32.40783 | -93.79856 | 18695 ft | 233 kts | 92° |
| 2026-04-12 17:32 | 32.40825 | -93.77938 | 18965 ft | 232 kts | 92° |
| 2026-04-12 17:33 | 32.40867 | -93.76029 | 19240 ft | 232 kts | 93° |
| 2026-04-12 17:33 | 32.40909 | -93.74125 | 19486 ft | 231 kts | 93° |
| 2026-04-12 17:33 | 32.40949 | -93.72228 | 19757 ft | 230 kts | 93° |
| 2026-04-12 17:33 | 32.40989 | -93.70335 | 20002 ft | 231 kts | 93° |
| 2026-04-12 17:34 | 32.41028 | -93.68432 | 20234 ft | 232 kts | 94° |
| 2026-04-12 17:34 | 32.41066 | -93.66520 | 20476 ft | 233 kts | 94° |
| 2026-04-12 17:34 | 32.41104 | -93.64597 | 20729 ft | 234 kts | 94° |
| 2026-04-12 17:34 | 32.41143 | -93.62687 | 20978 ft | 235 kts | 94° |
| 2026-04-12 17:35 | 32.41182 | -93.60750 | 21224 ft | 236 kts | 94° |
| 2026-04-12 17:35 | 32.41220 | -93.58808 | 21482 ft | 236 kts | 94° |
| 2026-04-12 17:35 | 32.41260 | -93.56857 | 21822 ft | 237 kts | 94° |
| 2026-04-12 17:35 | 32.41299 | -93.54900 | 22176 ft | 238 kts | 94° |
| 2026-04-12 17:36 | 32.41338 | -93.52938 | 22528 ft | 239 kts | 95° |
| 2026-04-12 17:36 | 32.41376 | -93.50964 | 22861 ft | 240 kts | 95° |
| 2026-04-12 17:36 | 32.41415 | -93.48992 | 23191 ft | 240 kts | 95° |
| 2026-04-12 17:36 | 32.41454 | -93.47017 | 23516 ft | 240 kts | 95° |
| 2026-04-12 17:37 | 32.41492 | -93.45046 | 23814 ft | 239 kts | 95° |
| 2026-04-12 17:37 | 32.41531 | -93.43080 | 24045 ft | 239 kts | 95° |
| 2026-04-12 17:37 | 32.41569 | -93.41117 | 24319 ft | 238 kts | 95° |
| 2026-04-12 17:37 | 32.41606 | -93.39153 | 24626 ft | 238 kts | 96° |
| 2026-04-12 17:38 | 32.41652 | -93.37196 | 24902 ft | 238 kts | 95° |
| 2026-04-12 17:38 | 32.41691 | -93.35266 | 25091 ft | 238 kts | 96° |
| 2026-04-12 17:38 | 32.41718 | -93.33293 | 25251 ft | 240 kts | 96° |
| 2026-04-12 17:38 | 32.41745 | -93.31316 | 25411 ft | 241 kts | 96° |
| 2026-04-12 17:39 | 32.41775 | -93.29338 | 25584 ft | 241 kts | 96° |
| 2026-04-12 17:39 | 32.41810 | -93.27348 | 25833 ft | 242 kts | 96° |
| 2026-04-12 17:39 | 32.41845 | -93.25351 | 26043 ft | 243 kts | 97° |
| 2026-04-12 17:39 | 32.41881 | -93.23352 | 26249 ft | 243 kts | 97° |
| 2026-04-12 17:40 | 32.41905 | -93.22026 | 26380 ft | 243 kts | 97° |
| 2026-04-12 17:40 | 32.41941 | -93.19997 | 26547 ft | 243 kts | 97° |
| 2026-04-12 17:40 | 32.41975 | -93.18022 | 26717 ft | 243 kts | 97° |
| 2026-04-12 17:40 | 32.42009 | -93.16027 | 26902 ft | 242 kts | 97° |
| 2026-04-12 17:41 | 32.42044 | -93.14038 | 27097 ft | 241 kts | 97° |
| 2026-04-12 17:41 | 32.42079 | -93.12062 | 27325 ft | 240 kts | 98° |
| 2026-04-12 17:41 | 32.42112 | -93.10093 | 27546 ft | 238 kts | 98° |
| 2026-04-12 17:41 | 32.42143 | -93.08139 | 27716 ft | 236 kts | 98° |
| 2026-04-12 17:42 | 32.42175 | -93.06204 | 27881 ft | 234 kts | 98° |
| 2026-04-12 17:42 | 32.42207 | -93.04280 | 28037 ft | 232 kts | 98° |
| 2026-04-12 17:42 | 32.42235 | -93.02365 | 28207 ft | 233 kts | 98° |
| 2026-04-12 17:43 | 32.42291 | -92.98530 | 28553 ft | 233 kts | 98° |
| 2026-04-12 17:43 | 32.42319 | -92.96610 | 28728 ft | 233 kts | 98° |
| 2026-04-12 17:43 | 32.42348 | -92.94693 | 28909 ft | 233 kts | 98° |
| 2026-04-12 17:43 | 32.42377 | -92.92773 | 29086 ft | 233 kts | 98° |
| 2026-04-12 17:44 | 32.42406 | -92.90861 | 29263 ft | 232 kts | 99° |
| 2026-04-12 17:44 | 32.42464 | -92.87045 | 29582 ft | 232 kts | 99° |
| 2026-04-12 17:44 | 32.42489 | -92.85154 | 29676 ft | 234 kts | 99° |
| 2026-04-12 17:45 | 32.42515 | -92.83230 | 29806 ft | 233 kts | 99° |
| 2026-04-12 17:45 | 32.42540 | -92.81316 | 29949 ft | 232 kts | 99° |
| 2026-04-12 17:45 | 32.42566 | -92.79411 | 30071 ft | 231 kts | 99° |
| 2026-04-12 17:45 | 32.42594 | -92.77511 | 30168 ft | 230 kts | 99° |
| 2026-04-12 17:46 | 32.42619 | -92.75616 | 30267 ft | 231 kts | 99° |
| 2026-04-12 17:46 | 32.42642 | -92.73703 | 30365 ft | 234 kts | 99° |
| 2026-04-12 17:46 | 32.42663 | -92.71769 | 30456 ft | 236 kts | 99° |
| 2026-04-12 17:46 | 32.42686 | -92.69815 | 30551 ft | 239 kts | 99° |
| 2026-04-12 17:47 | 32.42710 | -92.67839 | 30642 ft | 241 kts | 99° |
| 2026-04-12 17:47 | 32.42734 | -92.65846 | 30720 ft | 244 kts | 98° |
| 2026-04-12 17:47 | 32.42761 | -92.63831 | 30811 ft | 246 kts | 98° |
| 2026-04-12 17:47 | 32.42787 | -92.61798 | 30903 ft | 248 kts | 98° |
| 2026-04-12 17:48 | 32.42813 | -92.59749 | 31019 ft | 250 kts | 98° |
| 2026-04-12 17:48 | 32.42838 | -92.57678 | 31203 ft | 253 kts | 98° |
| 2026-04-12 17:48 | 32.42861 | -92.55565 | 31280 ft | 260 kts | 98° |
| 2026-04-12 17:48 | 32.42880 | -92.53394 | 31261 ft | 267 kts | 97° |
| 2026-04-12 17:49 | 32.42903 | -92.51165 | 31252 ft | 273 kts | 97° |
| 2026-04-12 17:49 | 32.42927 | -92.48897 | 31246 ft | 278 kts | 97° |
| 2026-04-12 17:49 | 32.42952 | -92.46616 | 31242 ft | 283 kts | 97° |
| 2026-04-12 17:49 | 32.42980 | -92.44271 | 31245 ft | 287 kts | 97° |
| 2026-04-12 17:50 | 32.43008 | -92.41893 | 31241 ft | 291 kts | 97° |
| 2026-04-12 17:50 | 32.43038 | -92.39490 | 31237 ft | 293 kts | 97° |
| 2026-04-12 17:50 | 32.43068 | -92.37069 | 31233 ft | 294 kts | 97° |
| 2026-04-12 17:50 | 32.43097 | -92.34647 | 31235 ft | 295 kts | 97° |
| 2026-04-12 17:51 | 32.43123 | -92.32212 | 31246 ft | 296 kts | 97° |
| 2026-04-12 17:51 | 32.43147 | -92.29759 | 31279 ft | 298 kts | 96° |
| 2026-04-12 17:51 | 32.43170 | -92.27296 | 31308 ft | 301 kts | 96° |
| 2026-04-12 17:52 | 32.43217 | -92.22295 | 31271 ft | 306 kts | 96° |
| 2026-04-12 17:52 | 32.43263 | -92.17249 | 31251 ft | 307 kts | 96° |
| 2026-04-12 17:53 | 32.43310 | -92.12200 | 31250 ft | 307 kts | 96° |
| 2026-04-12 17:53 | 32.43353 | -92.07141 | 31248 ft | 307 kts | 96° |
| 2026-04-12 17:54 | 32.43393 | -92.02083 | 31246 ft | 307 kts | 96° |
| 2026-04-12 17:54 | 32.43429 | -91.97060 | 31245 ft | 308 kts | 96° |
| 2026-04-12 17:55 | 32.43465 | -91.91964 | 31246 ft | 311 kts | 96° |
| 2026-04-12 17:55 | 32.43500 | -91.86820 | 31237 ft | 314 kts | 95° |
| 2026-04-12 17:56 | 32.43535 | -91.81636 | 31238 ft | 316 kts | 95° |
| 2026-04-12 17:56 | 32.43567 | -91.76413 | 31238 ft | 318 kts | 95° |
| 2026-04-12 17:57 | 32.43597 | -91.71168 | 31239 ft | 319 kts | 95° |
| 2026-04-12 17:57 | 32.43625 | -91.65899 | 31244 ft | 321 kts | 95° |
| 2026-04-12 17:58 | 32.43650 | -91.60610 | 31246 ft | 321 kts | 95° |
| 2026-04-12 17:58 | 32.43673 | -91.55350 | 31246 ft | 322 kts | 95° |
| 2026-04-12 17:59 | 32.43695 | -91.50050 | 31257 ft | 322 kts | 95° |
| 2026-04-12 17:59 | 32.43714 | -91.44742 | 31285 ft | 322 kts | 95° |
| 2026-04-12 18:00 | 32.43730 | -91.39436 | 31306 ft | 322 kts | 95° |
| 2026-04-12 18:00 | 32.43733 | -91.34131 | 31337 ft | 322 kts | 95° |
| 2026-04-12 18:01 | 32.43754 | -91.28825 | 31267 ft | 322 kts | 95° |
| 2026-04-12 18:01 | 32.43766 | -91.23515 | 31255 ft | 322 kts | 95° |
| 2026-04-12 18:02 | 32.43772 | -91.18212 | 31255 ft | 322 kts | 95° |
| 2026-04-12 18:02 | 32.43775 | -91.12907 | 31248 ft | 322 kts | 94° |
| 2026-04-12 18:03 | 32.43778 | -91.07638 | 31248 ft | 322 kts | 94° |
| 2026-04-12 18:03 | 32.43777 | -91.02334 | 31249 ft | 322 kts | 95° |
| 2026-04-12 18:04 | 32.43777 | -90.97025 | 31248 ft | 323 kts | 95° |
| 2026-04-12 18:04 | 32.43774 | -90.91709 | 31269 ft | 323 kts | 95° |
| 2026-04-12 18:05 | 32.43768 | -90.86388 | 31281 ft | 323 kts | 95° |
| 2026-04-12 18:05 | 32.43759 | -90.81058 | 31283 ft | 324 kts | 95° |
| 2026-04-12 18:06 | 32.43749 | -90.75724 | 31260 ft | 324 kts | 94° |
| 2026-04-12 18:06 | 32.43737 | -90.70380 | 31266 ft | 324 kts | 94° |
| 2026-04-12 18:07 | 32.43722 | -90.65130 | 31830 ft | 299 kts | 94° |
| 2026-04-12 18:07 | 32.43721 | -90.62739 | 32145 ft | 290 kts | 94° |
| 2026-04-12 18:07 | 32.43715 | -90.60324 | 32082 ft | 296 kts | 94° |
| 2026-04-12 18:08 | 32.43690 | -90.55339 | 31874 ft | 310 kts | 94° |
| 2026-04-12 18:08 | 32.43673 | -90.52753 | 31683 ft | 318 kts | 94° |
| 2026-04-12 18:08 | 32.43658 | -90.50161 | 31457 ft | 327 kts | 94° |
| 2026-04-12 18:08 | 32.43643 | -90.47409 | 31312 ft | 332 kts | 94° |
| 2026-04-12 18:09 | 32.43631 | -90.44674 | 31295 ft | 332 kts | 94° |
| 2026-04-12 18:09 | 32.43609 | -90.39223 | 31276 ft | 330 kts | 94° |
| 2026-04-12 18:10 | 32.43587 | -90.33798 | 31268 ft | 329 kts | 93° |
| 2026-04-12 18:10 | 32.43554 | -90.28384 | 31271 ft | 328 kts | 94° |
| 2026-04-12 18:11 | 32.43519 | -90.22992 | 31269 ft | 327 kts | 94° |
| 2026-04-12 18:11 | 32.43483 | -90.17611 | 31269 ft | 327 kts | 94° |
| 2026-04-12 18:12 | 32.43424 | -90.12244 | 31271 ft | 325 kts | 97° |
| 2026-04-12 18:12 | 32.43040 | -90.09637 | 31266 ft | 320 kts | 110° |
| 2026-04-12 18:12 | 32.42175 | -90.07245 | 31264 ft | 313 kts | 125° |
| 2026-04-12 18:13 | 32.40052 | -90.02746 | 31267 ft | 314 kts | 122° |
| 2026-04-12 18:13 | 32.38060 | -89.98149 | 31261 ft | 314 kts | 121° |
| 2026-04-12 18:14 | 32.36044 | -89.93573 | 31265 ft | 313 kts | 122° |
| 2026-04-12 18:14 | 32.34020 | -89.89049 | 31262 ft | 313 kts | 122° |
| 2026-04-12 18:15 | 32.31974 | -89.84506 | 31269 ft | 313 kts | 122° |
| 2026-04-12 18:15 | 32.29921 | -89.79950 | 31270 ft | 314 kts | 122° |
| 2026-04-12 18:16 | 32.27860 | -89.75397 | 31276 ft | 313 kts | 122° |
| 2026-04-12 18:16 | 32.25805 | -89.70866 | 31279 ft | 312 kts | 122° |
| 2026-04-12 18:17 | 32.23758 | -89.66360 | 31279 ft | 311 kts | 122° |
| 2026-04-12 18:17 | 32.21714 | -89.61866 | 31277 ft | 310 kts | 122° |
| 2026-04-12 18:18 | 32.19679 | -89.57389 | 31274 ft | 309 kts | 122° |
| 2026-04-12 18:18 | 32.17653 | -89.52958 | 31286 ft | 309 kts | 122° |
| 2026-04-12 18:19 | 32.15611 | -89.48481 | 31290 ft | 310 kts | 122° |
| 2026-04-12 18:19 | 32.13566 | -89.43991 | 31286 ft | 311 kts | 122° |
| 2026-04-12 18:20 | 32.11515 | -89.39500 | 31284 ft | 311 kts | 122° |
| 2026-04-12 18:20 | 32.09461 | -89.35010 | 31286 ft | 311 kts | 122° |
| 2026-04-12 18:21 | 32.07400 | -89.30513 | 31286 ft | 312 kts | 122° |
| 2026-04-12 18:21 | 32.05338 | -89.26019 | 31287 ft | 311 kts | 122° |
| 2026-04-12 18:22 | 32.03281 | -89.21530 | 31283 ft | 311 kts | 122° |
| 2026-04-12 18:22 | 32.01218 | -89.17048 | 31290 ft | 311 kts | 122° |
| 2026-04-12 18:23 | 31.99155 | -89.12572 | 31293 ft | 311 kts | 122° |
| 2026-04-12 18:23 | 31.97104 | -89.08124 | 31297 ft | 311 kts | 122° |
| 2026-04-12 18:24 | 31.95037 | -89.03648 | 31296 ft | 311 kts | 122° |
| 2026-04-12 18:24 | 31.92970 | -88.99174 | 31295 ft | 311 kts | 122° |
| 2026-04-12 18:25 | 31.90900 | -88.94700 | 31293 ft | 311 kts | 122° |
| 2026-04-12 18:25 | 31.88830 | -88.90231 | 31299 ft | 311 kts | 122° |
| 2026-04-12 18:26 | 31.86747 | -88.85757 | 31295 ft | 312 kts | 122° |
| 2026-04-12 18:26 | 31.84675 | -88.81276 | 31289 ft | 312 kts | 122° |
| 2026-04-12 18:27 | 31.82592 | -88.76798 | 31286 ft | 312 kts | 122° |
| 2026-04-12 18:27 | 31.80863 | -88.73083 | 31290 ft | 312 kts | 122° |
| 2026-04-12 18:28 | 31.78779 | -88.68614 | 31282 ft | 312 kts | 122° |
| 2026-04-12 18:28 | 31.76692 | -88.64143 | 31288 ft | 312 kts | 122° |
| 2026-04-12 18:29 | 31.74605 | -88.59676 | 31286 ft | 312 kts | 122° |
| 2026-04-12 18:29 | 31.72517 | -88.55211 | 31291 ft | 312 kts | 122° |
| 2026-04-12 18:30 | 31.70427 | -88.50748 | 31295 ft | 312 kts | 122° |
| 2026-04-12 18:30 | 31.68335 | -88.46284 | 31291 ft | 312 kts | 122° |
| 2026-04-12 18:31 | 31.66257 | -88.41855 | 31299 ft | 312 kts | 122° |
| 2026-04-12 18:31 | 31.64157 | -88.37389 | 31295 ft | 312 kts | 122° |
| 2026-04-12 18:32 | 31.62055 | -88.32922 | 31294 ft | 312 kts | 122° |
| 2026-04-12 18:32 | 31.59953 | -88.28459 | 31293 ft | 312 kts | 122° |
| 2026-04-12 18:33 | 31.57850 | -88.24001 | 31292 ft | 312 kts | 122° |
| 2026-04-12 18:33 | 31.55746 | -88.19544 | 31295 ft | 312 kts | 122° |
| 2026-04-12 18:34 | 31.53639 | -88.15087 | 31292 ft | 312 kts | 122° |
| 2026-04-12 18:34 | 31.51535 | -88.10640 | 31292 ft | 312 kts | 122° |
| 2026-04-12 18:35 | 31.49433 | -88.06194 | 31291 ft | 312 kts | 121° |
| 2026-04-12 18:35 | 31.47322 | -88.01751 | 31299 ft | 312 kts | 122° |
| 2026-04-12 18:36 | 31.45565 | -87.98058 | 31295 ft | 312 kts | 122° |
| 2026-04-12 18:37 | 31.40988 | -87.88436 | 31299 ft | 312 kts | 122° |
| 2026-04-12 18:37 | 31.38870 | -87.83990 | 31298 ft | 313 kts | 122° |